Time;durP1;ratioP1;P1;durP2;ratioP2;P2;SDS_P1;SDS_P2;PMS_P1;PMS_P2;Temp;Humidity;BMP_temperature;BMP_pressure;BME280_temperature;BME280_humidity;BME280_pressure;Samples;Min_cycle;Max_cycle;Signal;HPM_P1;HPM_P2
2023/09/30 00:00:11;;;;;;;21.52;12.23;;;18.60;99.90;;;;;;5006907;28;20230;-76
2023/09/30 00:03:00;;;;;;;19.33;10.90;;;18.60;99.90;;;;;;4996259;28;20295;-76
2023/09/30 00:05:51;;;;;;;23.67;12.60;;;18.60;99.90;;;;;;4989542;28;20352;-76
2023/09/30 00:08:41;;;;;;;22.02;11.60;;;18.60;99.90;;;;;;4994257;28;20222;-77
2023/09/30 00:11:30;;;;;;;15.95;11.93;;;18.60;99.90;;;;;;4995818;28;20218;-78
2023/09/30 00:14:19;;;;;;;15.20;11.75;;;18.60;99.90;;;;;;5021112;28;20291;-77
2023/09/30 00:17:08;;;;;;;16.75;11.35;;;18.60;99.90;;;;;;5017465;28;20226;-78
2023/09/30 00:19:59;;;;;;;18.50;12.63;;;18.60;99.90;;;;;;5001680;28;20229;-79
2023/09/30 00:22:49;;;;;;;16.42;11.95;;;18.60;99.90;;;;;;4999027;28;20226;-74
2023/09/30 00:25:39;;;;;;;15.77;11.82;;;18.60;99.90;;;;;;5015571;28;20226;-76
2023/09/30 00:28:28;;;;;;;18.45;12.13;;;18.60;99.90;;;;;;4997226;28;20823;-73
2023/09/30 00:31:18;;;;;;;18.83;12.27;;;18.60;99.90;;;;;;4998838;28;20229;-73
2023/09/30 00:34:08;;;;;;;18.02;11.77;;;18.60;99.90;;;;;;5014786;28;20254;-74
2023/09/30 00:36:57;;;;;;;18.08;11.95;;;18.50;99.90;;;;;;5001001;28;20242;-74
2023/09/30 00:39:48;;;;;;;20.88;12.05;;;18.60;99.90;;;;;;5007153;28;20266;-73
2023/09/30 00:42:37;;;;;;;15.00;11.75;;;18.60;99.90;;;;;;4995788;28;20272;-74
2023/09/30 00:45:26;;;;;;;20.15;11.95;;;18.60;99.90;;;;;;5011957;28;20222;-76
2023/09/30 00:48:15;;;;;;;17.55;11.88;;;18.60;99.90;;;;;;4985168;28;20218;-76
2023/09/30 00:51:05;;;;;;;18.70;12.15;;;18.50;99.90;;;;;;4981941;28;20709;-77
2023/09/30 00:53:55;;;;;;;14.80;11.38;;;18.50;99.90;;;;;;4985974;28;20242;-76
2023/09/30 00:56:47;;;;;;;17.35;12.13;;;18.50;99.90;;;;;;5008259;28;20754;-77
2023/09/30 00:59:36;;;;;;;17.00;12.00;;;18.50;99.90;;;;;;4986367;28;20247;-75
2023/09/30 01:02:26;;;;;;;17.48;11.32;;;18.50;99.90;;;;;;5002554;28;20226;-73
2023/09/30 01:05:15;;;;;;;18.25;11.20;;;18.50;99.90;;;;;;4988730;28;20229;-76
2023/09/30 01:08:05;;;;;;;18.30;11.77;;;18.50;99.90;;;;;;5001750;28;20257;-75
2023/09/30 01:10:55;;;;;;;16.92;11.77;;;18.50;99.90;;;;;;4991402;28;20329;-74
2023/09/30 01:13:49;;;;;;;15.70;11.45;;;18.50;99.90;;;;;;5003128;28;20249;-74
2023/09/30 01:16:38;;;;;;;16.90;11.30;;;18.50;99.90;;;;;;5015615;28;20215;-75
2023/09/30 01:19:27;;;;;;;17.92;12.23;;;18.50;99.90;;;;;;4992289;28;20670;-73
2023/09/30 01:22:19;;;;;;;17.35;11.40;;;18.50;99.90;;;;;;4996233;28;20360;-74
2023/09/30 01:25:09;;;;;;;20.38;12.13;;;18.50;99.90;;;;;;4995865;28;20681;-75
2023/09/30 01:27:59;;;;;;;17.38;12.50;;;18.50;99.90;;;;;;4980773;28;20237;-74
2023/09/30 01:30:48;;;;;;;17.55;11.75;;;18.40;99.90;;;;;;4996437;28;20277;-72
2023/09/30 01:33:38;;;;;;;14.80;12.32;;;18.40;99.90;;;;;;4989254;28;20240;-73
2023/09/30 01:36:28;;;;;;;15.75;11.20;;;18.40;99.90;;;;;;5006149;28;20226;-73
2023/09/30 01:39:18;;;;;;;14.00;11.48;;;18.30;99.90;;;;;;5011461;28;20221;-72
2023/09/30 01:42:08;;;;;;;20.42;12.13;;;18.30;99.90;;;;;;5011708;28;20255;-71
2023/09/30 01:44:57;;;;;;;18.63;12.02;;;18.30;99.90;;;;;;5013219;28;20224;-73
2023/09/30 01:47:47;;;;;;;23.08;12.57;;;18.30;99.90;;;;;;4984988;28;20717;-73
2023/09/30 01:50:35;;;;;;;20.00;12.00;;;18.30;99.90;;;;;;5019041;28;20229;-72
2023/09/30 01:53:24;;;;;;;15.60;12.00;;;18.20;99.90;;;;;;5016772;28;20320;-70
2023/09/30 01:56:15;;;;;;;19.40;12.63;;;18.20;99.90;;;;;;5002760;28;20832;-74
2023/09/30 01:59:03;;;;;;;18.58;12.35;;;18.20;99.90;;;;;;4993911;28;20590;-75
2023/09/30 02:01:52;;;;;;;15.82;12.48;;;18.30;99.90;;;;;;5006746;28;20232;-74
2023/09/30 02:04:42;;;;;;;19.25;12.70;;;18.30;99.90;;;;;;4989917;28;20237;-73
2023/09/30 02:07:30;;;;;;;15.15;12.18;;;18.30;99.90;;;;;;5001247;28;20933;-73
2023/09/30 02:10:20;;;;;;;16.38;11.82;;;18.30;99.90;;;;;;5004076;28;20224;-74
2023/09/30 02:13:10;;;;;;;15.23;12.10;;;18.30;99.90;;;;;;5017660;28;20222;-74
2023/09/30 02:15:59;;;;;;;15.27;12.23;;;18.30;99.90;;;;;;5018527;28;20725;-74
2023/09/30 02:18:51;;;;;;;22.00;11.75;;;18.20;99.90;;;;;;5019814;28;20263;-74
2023/09/30 02:21:40;;;;;;;17.05;11.50;;;18.30;99.90;;;;;;5035365;28;20601;-74
2023/09/30 02:24:29;;;;;;;20.55;11.90;;;18.20;99.90;;;;;;5001518;28;20230;-74
2023/09/30 02:27:18;;;;;;;16.05;11.63;;;18.20;99.90;;;;;;4988614;28;20222;-75
2023/09/30 02:30:11;;;;;;;22.23;12.13;;;18.30;99.90;;;;;;5015266;28;20228;-75
2023/09/30 02:33:00;;;;;;;14.48;11.25;;;18.20;99.90;;;;;;5013785;28;20232;-77
2023/09/30 02:35:49;;;;;;;14.93;11.50;;;18.30;99.90;;;;;;5019301;28;20264;-75
2023/09/30 02:38:40;;;;;;;16.20;11.40;;;18.30;99.90;;;;;;4990648;28;20249;-75
2023/09/30 02:41:29;;;;;;;16.90;11.95;;;18.30;99.90;;;;;;4996428;28;20280;-75
2023/09/30 02:44:18;;;;;;;18.10;11.80;;;18.30;99.90;;;;;;5010576;28;20285;-76
2023/09/30 02:47:10;;;;;;;18.33;12.38;;;18.30;99.90;;;;;;5014175;28;20301;-75
2023/09/30 02:50:00;;;;;;;17.80;12.00;;;18.20;99.90;;;;;;4997843;28;20229;-75
2023/09/30 02:52:49;;;;;;;15.48;11.23;;;18.20;99.90;;;;;;5013201;28;20230;-75
2023/09/30 02:55:38;;;;;;;19.52;12.18;;;18.20;99.90;;;;;;5024035;28;20229;-75
2023/09/30 02:58:27;;;;;;;16.02;11.50;;;18.20;99.90;;;;;;5016827;28;20757;-75
2023/09/30 03:01:17;;;;;;;16.95;11.75;;;18.20;99.90;;;;;;5016693;28;20225;-73
2023/09/30 03:04:09;;;;;;;17.08;11.82;;;18.20;99.90;;;;;;5015994;28;20283;-74
2023/09/30 03:06:58;;;;;;;17.30;12.35;;;18.30;99.90;;;;;;5009191;28;20232;-72
2023/09/30 03:09:47;;;;;;;16.02;11.63;;;18.30;99.90;;;;;;5037707;28;21037;-74
2023/09/30 03:12:37;;;;;;;15.93;11.55;;;18.20;99.90;;;;;;5008110;28;20233;-73
2023/09/30 03:15:26;;;;;;;20.60;11.02;;;18.30;99.90;;;;;;5008463;28;22923;-73
2023/09/30 03:18:16;;;;;;;16.13;11.88;;;18.30;99.90;;;;;;5020390;28;20731;-73
2023/09/30 03:21:15;;;;;;;15.90;11.27;;;18.30;99.90;;;;;;5019710;28;20907;-74
2023/09/30 03:24:05;;;;;;;16.27;11.45;;;18.30;99.90;;;;;;5019292;28;20324;-72
2023/09/30 03:26:54;;;;;;;19.90;12.40;;;18.30;99.90;;;;;;5012023;28;20754;-74
2023/09/30 03:29:43;;;;;;;14.57;11.02;;;18.20;99.90;;;;;;5009245;28;20229;-73
2023/09/30 03:32:33;;;;;;;15.63;11.65;;;18.20;99.90;;;;;;5010953;28;20229;-74
2023/09/30 03:35:23;;;;;;;17.42;11.52;;;18.20;99.90;;;;;;5021813;28;20245;-73
2023/09/30 03:38:14;;;;;;;18.17;11.70;;;18.20;99.90;;;;;;5014393;28;20320;-73
2023/09/30 03:41:02;;;;;;;17.98;11.95;;;18.30;99.90;;;;;;5004808;28;20221;-71
2023/09/30 03:43:52;;;;;;;14.02;12.20;;;18.20;99.90;;;;;;5023785;28;20682;-72
2023/09/30 03:46:41;;;;;;;15.02;12.25;;;18.20;99.90;;;;;;5006688;28;20230;-74
2023/09/30 03:49:30;;;;;;;18.15;11.70;;;18.20;99.90;;;;;;5020439;28;20252;-73
2023/09/30 03:52:22;;;;;;;14.40;11.93;;;18.20;99.90;;;;;;5002469;28;20294;-71
2023/09/30 03:55:15;;;;;;;17.83;11.77;;;18.20;99.90;;;;;;5025032;28;20237;-74
2023/09/30 03:58:04;;;;;;;18.20;11.35;;;18.10;99.90;;;;;;5011380;28;20231;-73
2023/09/30 04:00:53;;;;;;;17.45;11.50;;;18.10;99.90;;;;;;5013447;28;20237;-75
2023/09/30 04:03:43;;;;;;;18.38;12.23;;;18.20;99.90;;;;;;5021556;28;20348;-75
2023/09/30 04:06:33;;;;;;;16.02;10.90;;;18.20;99.90;;;;;;5012907;28;20275;-74
2023/09/30 04:09:22;;;;;;;14.65;11.70;;;18.10;99.90;;;;;;5009123;28;20234;-72
2023/09/30 04:12:12;;;;;;;17.63;11.88;;;18.10;99.90;;;;;;5020648;28;20569;-75
2023/09/30 04:15:02;;;;;;;15.45;11.40;;;18.20;99.90;;;;;;5009127;28;20226;-73
2023/09/30 04:17:52;;;;;;;17.40;11.35;;;18.20;99.90;;;;;;5003431;28;20222;-74
2023/09/30 04:20:41;;;;;;;17.40;11.70;;;18.20;99.90;;;;;;4999262;28;20922;-73
2023/09/30 04:23:30;;;;;;;17.33;11.43;;;18.20;99.90;;;;;;4993218;28;20271;-74
2023/09/30 04:26:20;;;;;;;18.42;11.98;;;18.20;99.90;;;;;;5007404;28;20430;-72
2023/09/30 04:29:10;;;;;;;16.48;11.27;;;18.20;99.90;;;;;;5025403;28;20221;-71
2023/09/30 04:31:59;;;;;;;17.25;11.52;;;18.20;99.90;;;;;;5010431;28;20221;-77
2023/09/30 04:34:48;;;;;;;18.58;11.40;;;18.20;99.90;;;;;;5013855;28;20424;-74
2023/09/30 04:37:38;;;;;;;16.60;11.00;;;18.20;99.90;;;;;;5015229;28;20893;-74
2023/09/30 04:40:27;;;;;;;15.45;11.35;;;18.20;99.90;;;;;;5017823;28;20221;-73
2023/09/30 04:43:17;;;;;;;14.80;10.77;;;18.20;99.90;;;;;;5017894;28;20292;-73
2023/09/30 04:46:08;;;;;;;19.48;11.07;;;18.20;99.90;;;;;;5008902;28;20225;-73
2023/09/30 04:48:57;;;;;;;15.18;10.45;;;18.30;99.90;;;;;;5009105;28;20234;-73
2023/09/30 04:51:46;;;;;;;18.75;11.20;;;18.20;99.90;;;;;;5017548;28;20706;-74
2023/09/30 04:54:36;;;;;;;16.35;11.35;;;18.20;99.90;;;;;;5027571;28;20730;-73
2023/09/30 04:57:25;;;;;;;18.33;11.13;;;18.30;99.90;;;;;;5000404;28;20225;-74
2023/09/30 05:00:16;;;;;;;15.80;10.95;;;18.30;99.90;;;;;;5001353;28;20717;-74
2023/09/30 05:03:08;;;;;;;14.80;10.55;;;18.30;99.90;;;;;;5010801;28;20348;-75
2023/09/30 05:05:58;;;;;;;19.13;11.20;;;18.30;99.90;;;;;;5007666;28;20695;-75
2023/09/30 05:08:47;;;;;;;18.27;10.38;;;18.30;99.90;;;;;;5001519;28;20317;-74
2023/09/30 05:11:36;;;;;;;18.92;11.02;;;18.30;99.90;;;;;;5022353;28;20363;-72
2023/09/30 05:14:25;;;;;;;13.80;10.90;;;18.30;99.90;;;;;;5002697;28;20904;-73
2023/09/30 05:17:14;;;;;;;13.88;10.40;;;18.30;99.90;;;;;;5011638;28;20232;-74
2023/09/30 05:20:06;;;;;;;17.83;11.35;;;18.30;99.90;;;;;;5008017;28;20234;-73
2023/09/30 05:22:56;;;;;;;17.30;9.98;;;18.30;99.90;;;;;;5010340;28;20218;-74
2023/09/30 05:25:44;;;;;;;19.27;10.73;;;18.30;99.90;;;;;;5013531;28;20256;-75
2023/09/30 05:28:34;;;;;;;11.82;10.32;;;18.30;99.90;;;;;;5009957;28;20666;-72
2023/09/30 05:31:23;;;;;;;13.40;10.27;;;18.30;99.90;;;;;;5017742;28;20299;-72
2023/09/30 05:34:12;;;;;;;17.73;10.30;;;18.30;99.90;;;;;;5016312;28;20225;-74
2023/09/30 05:37:03;;;;;;;16.70;10.40;;;18.30;99.90;;;;;;5018825;28;20324;-72
2023/09/30 05:39:51;;;;;;;14.38;10.68;;;18.30;99.90;;;;;;5012476;28;20306;-73
2023/09/30 05:42:42;;;;;;;17.08;10.05;;;18.30;99.90;;;;;;5015575;28;20229;-74
2023/09/30 05:45:34;;;;;;;15.05;10.25;;;18.40;99.90;;;;;;5015779;28;20264;-73
2023/09/30 05:48:23;;;;;;;18.77;10.40;;;18.40;99.90;;;;;;5021502;28;20220;-72
2023/09/30 05:51:14;;;;;;;13.43;10.18;;;18.30;99.90;;;;;;5017211;28;20310;-73
2023/09/30 05:54:05;;;;;;;17.33;10.65;;;18.40;99.90;;;;;;5013406;28;20214;-72
2023/09/30 05:56:54;;;;;;;15.35;10.50;;;18.40;99.90;;;;;;5024402;28;20226;-73
2023/09/30 05:59:46;;;;;;;18.15;11.20;;;18.30;99.90;;;;;;5016549;28;20879;-72
2023/09/30 06:02:34;;;;;;;19.85;11.05;;;18.40;99.90;;;;;;5016709;28;20316;-73
2023/09/30 06:05:29;;;;;;;15.05;12.00;;;18.40;99.90;;;;;;5023928;28;20355;-73
2023/09/30 06:08:20;;;;;;;16.92;11.93;;;18.40;99.90;;;;;;5021706;28;20221;-72
2023/09/30 06:11:17;;;;;;;17.50;11.60;;;18.40;99.90;;;;;;5024726;28;20249;-75
2023/09/30 06:14:07;;;;;;;19.52;11.60;;;18.40;99.90;;;;;;5017672;28;20229;-73
2023/09/30 06:16:56;;;;;;;15.27;11.77;;;18.40;99.90;;;;;;5011821;28;20287;-73
2023/09/30 06:19:47;;;;;;;16.50;11.73;;;18.30;99.90;;;;;;5018150;28;20296;-74
2023/09/30 06:22:36;;;;;;;12.90;10.73;;;18.30;99.90;;;;;;5019091;28;20807;-74
2023/09/30 06:25:27;;;;;;;20.73;10.88;;;18.30;99.90;;;;;;5015628;28;20221;-74
2023/09/30 06:28:17;;;;;;;14.50;11.07;;;18.30;99.90;;;;;;5015580;28;20827;-74
2023/09/30 06:31:09;;;;;;;16.70;10.48;;;18.30;99.90;;;;;;5007707;28;20236;-72
2023/09/30 06:34:00;;;;;;;14.48;10.10;;;18.30;99.90;;;;;;5018149;28;20406;-73
2023/09/30 06:36:49;;;;;;;16.30;9.38;;;18.30;99.90;;;;;;5015721;28;20740;-72
2023/09/30 06:39:38;;;;;;;17.13;10.60;;;18.30;99.90;;;;;;5015471;28;20244;-71
2023/09/30 06:42:28;;;;;;;13.25;10.48;;;18.30;99.90;;;;;;5016302;28;20230;-72
2023/09/30 06:45:18;;;;;;;15.40;10.10;;;18.30;99.90;;;;;;5022326;28;20225;-73
2023/09/30 06:48:07;;;;;;;14.55;10.23;;;18.30;99.90;;;;;;5018354;28;20320;-73
2023/09/30 06:50:58;;;;;;;13.45;9.80;;;18.30;99.90;;;;;;5023359;28;20226;-75
2023/09/30 06:53:47;;;;;;;13.40;9.85;;;18.30;99.90;;;;;;5006024;28;20217;-72
2023/09/30 06:56:36;;;;;;;14.95;10.30;;;18.40;99.90;;;;;;5011727;28;20299;-72
2023/09/30 06:59:26;;;;;;;13.85;10.07;;;18.30;99.90;;;;;;5018182;28;20222;-73
2023/09/30 07:02:16;;;;;;;13.60;10.18;;;18.20;99.90;;;;;;5009090;28;20222;-72
2023/09/30 07:05:08;;;;;;;15.50;10.70;;;18.30;99.90;;;;;;5028246;28;20225;-74
2023/09/30 07:07:58;;;;;;;14.48;10.90;;;18.20;99.90;;;;;;5018923;28;20313;-76
2023/09/30 07:10:49;;;;;;;15.10;10.82;;;18.20;99.90;;;;;;5023060;28;20241;-74
2023/09/30 07:13:38;;;;;;;14.98;10.60;;;18.20;99.90;;;;;;5016934;28;20237;-75
2023/09/30 07:16:27;;;;;;;14.70;10.70;;;18.20;99.90;;;;;;5017280;28;20321;-73
2023/09/30 07:19:17;;;;;;;13.35;10.75;;;18.20;99.90;;;;;;5021713;28;20251;-73
2023/09/30 07:22:06;;;;;;;14.57;11.23;;;18.20;99.90;;;;;;5019839;28;20252;-70
2023/09/30 07:24:56;;;;;;;16.00;11.70;;;18.20;99.90;;;;;;5018778;28;20276;-71
2023/09/30 07:27:45;;;;;;;16.58;12.63;;;18.20;99.90;;;;;;5004713;28;20225;-74
2023/09/30 07:30:35;;;;;;;17.40;12.40;;;18.30;99.90;;;;;;5020040;28;20229;-73
2023/09/30 07:33:24;;;;;;;14.70;11.90;;;18.30;99.90;;;;;;5001412;28;20230;-75
2023/09/30 07:36:16;;;;;;;15.25;12.15;;;18.30;99.90;;;;;;5027662;28;20221;-74
2023/09/30 07:39:05;;;;;;;12.98;11.40;;;18.30;99.90;;;;;;5022840;28;20225;-76
2023/09/30 07:41:55;;;;;;;18.58;13.85;;;18.20;99.90;;;;;;5009859;28;20232;-78
2023/09/30 07:44:44;;;;;;;21.65;13.23;;;18.30;99.90;;;;;;5021973;28;20225;-76
2023/09/30 07:47:33;;;;;;;19.92;13.32;;;18.30;99.90;;;;;;5010046;28;20334;-76
2023/09/30 07:50:23;;;;;;;19.58;12.95;;;18.40;99.90;;;;;;5023583;28;20225;-74
2023/09/30 07:53:13;;;;;;;18.15;14.52;;;18.40;99.90;;;;;;5028097;28;20230;-72
2023/09/30 07:56:02;;;;;;;21.55;14.13;;;18.30;99.90;;;;;;5015200;28;20221;-79
2023/09/30 07:58:51;;;;;;;17.90;14.93;;;18.40;99.90;;;;;;5018632;28;20229;-78
2023/09/30 08:01:41;;;;;;;18.13;14.77;;;18.40;99.90;;;;;;5020541;28;20450;-78
2023/09/30 08:04:31;;;;;;;16.15;14.43;;;18.50;99.90;;;;;;5007331;28;20218;-79
2023/09/30 08:07:20;;;;;;;17.02;14.13;;;18.60;99.90;;;;;;5010388;28;20325;-78
2023/09/30 08:10:13;;;;;;;19.35;14.40;;;18.80;99.90;;;;;;5021507;28;20241;-79
2023/09/30 08:13:03;;;;;;;17.77;14.73;;;18.80;99.90;;;;;;5022973;28;20239;-79
2023/09/30 08:15:53;;;;;;;18.60;15.40;;;18.90;99.90;;;;;;5012596;28;20261;-80
2023/09/30 08:18:42;;;;;;;20.42;15.20;;;18.90;99.90;;;;;;5010107;28;20241;-76
2023/09/30 08:21:31;;;;;;;18.98;15.52;;;18.90;99.90;;;;;;5020008;28;20622;-73
2023/09/30 08:24:20;;;;;;;19.33;15.25;;;18.90;99.90;;;;;;5006377;28;20252;-70
2023/09/30 08:27:10;;;;;;;16.95;15.00;;;18.90;99.90;;;;;;5025424;28;20248;-74
2023/09/30 08:29:59;;;;;;;19.05;15.55;;;19.00;99.90;;;;;;5017492;28;20307;-75
2023/09/30 08:32:50;;;;;;;18.77;15.88;;;18.90;99.90;;;;;;5018261;28;20230;-68
2023/09/30 08:35:39;;;;;;;18.38;15.95;;;19.00;99.90;;;;;;5004763;28;20222;-71
2023/09/30 08:38:28;;;;;;;19.25;16.00;;;19.00;99.90;;;;;;5015406;28;20726;-71
2023/09/30 08:41:29;;;;;;;21.20;17.42;;;19.10;99.90;;;;;;5018730;28;20256;-71
2023/09/30 08:44:21;;;;;;;20.83;17.42;;;19.20;99.90;;;;;;5017546;28;20217;-74
2023/09/30 08:47:11;;;;;;;20.17;16.88;;;19.20;99.90;;;;;;5011414;28;20221;-74
2023/09/30 08:50:05;;;;;;;22.50;17.33;;;19.20;99.90;;;;;;5026883;28;20219;-73
2023/09/30 08:52:56;;;;;;;20.48;17.98;;;19.10;99.90;;;;;;5010886;28;20729;-75
2023/09/30 08:55:47;;;;;;;22.35;17.55;;;19.10;99.90;;;;;;5015797;28;20224;-74
2023/09/30 08:58:36;;;;;;;21.33;18.17;;;19.00;99.90;;;;;;5021479;28;20238;-73
2023/09/30 09:01:27;;;;;;;21.13;18.25;;;19.00;99.90;;;;;;5005925;28;20220;-73
2023/09/30 09:04:18;;;;;;;21.30;19.00;;;19.00;99.90;;;;;;5019943;28;20418;-73
2023/09/30 09:07:07;;;;;;;21.13;17.77;;;18.90;99.90;;;;;;5013916;28;20433;-74
2023/09/30 09:10:07;;;;;;;21.23;17.92;;;18.90;99.90;;;;;;5010421;28;20794;-75
2023/09/30 09:12:58;;;;;;;20.30;17.27;;;18.80;99.90;;;;;;5012970;28;20388;-75
2023/09/30 09:15:47;;;;;;;21.98;18.88;;;18.80;99.90;;;;;;5013771;28;20445;-77
2023/09/30 09:18:38;;;;;;;21.98;19.23;;;18.80;99.90;;;;;;5017143;28;20229;-70
2023/09/30 09:21:27;;;;;;;22.20;19.10;;;18.90;99.90;;;;;;5002971;28;20229;-69
2023/09/30 09:24:28;;;;;;;23.65;18.50;;;18.80;99.90;;;;;;5021432;28;20221;-71
2023/09/30 09:27:20;;;;;;;22.15;19.17;;;18.70;99.90;;;;;;5002363;28;20222;-82
2023/09/30 09:30:16;;;;;;;28.98;20.15;;;18.70;99.90;;;;;;5017273;28;20687;-75
2023/09/30 09:33:06;;;;;;;26.92;20.05;;;18.70;99.90;;;;;;5019331;28;20236;-75
2023/09/30 09:35:57;;;;;;;23.75;19.30;;;18.70;99.90;;;;;;5006188;28;20903;-75
2023/09/30 09:38:47;;;;;;;23.98;20.98;;;18.60;99.90;;;;;;5020852;28;20234;-74
2023/09/30 09:41:51;;;;;;;25.77;20.58;;;18.60;99.90;;;;;;5017334;28;20422;-75
2023/09/30 09:44:41;;;;;;;26.27;21.17;;;18.60;99.90;;;;;;5020014;28;20227;-75
2023/09/30 09:47:32;;;;;;;27.40;21.77;;;18.60;99.90;;;;;;5012049;28;20226;-75
2023/09/30 09:50:23;;;;;;;26.58;22.17;;;18.60;99.90;;;;;;5016481;28;20229;-74
2023/09/30 09:53:15;;;;;;;25.88;21.38;;;18.60;99.90;;;;;;5020968;28;20312;-74
2023/09/30 09:56:07;;;;;;;23.35;20.70;;;18.60;99.90;;;;;;5005888;28;20252;-76
2023/09/30 09:58:55;;;;;;;26.42;21.23;;;18.50;99.90;;;;;;5020288;28;20225;-75
2023/09/30 10:01:45;;;;;;;26.70;21.70;;;18.50;99.90;;;;;;5008536;28;20296;-74
2023/09/30 10:04:34;;;;;;;32.40;23.95;;;18.50;99.90;;;;;;5016198;28;20229;-74
2023/09/30 10:07:28;;;;;;;27.40;23.52;;;18.50;99.90;;;;;;5013201;28;20228;-73
2023/09/30 10:10:20;;;;;;;31.80;25.90;;;18.50;99.90;;;;;;5023265;28;20326;-74
2023/09/30 10:13:09;;;;;;;30.80;26.52;;;18.50;99.90;;;;;;5019739;28;20300;-74
2023/09/30 10:15:58;;;;;;;32.45;26.50;;;18.40;99.90;;;;;;5022308;28;20261;-73
2023/09/30 10:19:08;;;;;;;29.38;26.17;;;18.40;99.90;;;;;;5026404;28;20722;-74
2023/09/30 10:22:22;;;;;;;31.92;27.00;;;18.30;99.90;;;;;;5013962;28;20332;-74
2023/09/30 10:25:35;;;;;;;33.70;27.25;;;18.60;99.90;;;;;;5016417;28;20276;-77
2023/09/30 10:28:35;;;;;;;28.00;22.77;;;18.60;99.90;;;;;;5006317;28;20321;-70
2023/09/30 10:31:25;;;;;;;29.67;22.67;;;18.50;99.90;;;;;;5014280;28;21528;-74
2023/09/30 10:34:25;;;;;;;23.98;17.88;;;18.50;99.90;;;;;;5023502;28;21066;-72
2023/09/30 10:37:21;;;;;;;23.17;16.13;;;18.40;99.90;;;;;;5015415;28;20233;-73
2023/09/30 10:40:11;;;;;;;23.58;14.02;;;18.30;99.90;;;;;;5025368;28;20246;-71
2023/09/30 10:43:02;;;;;;;20.95;13.50;;;18.30;99.90;;;;;;5008488;28;20601;-73
2023/09/30 10:45:50;;;;;;;16.77;11.15;;;18.30;99.90;;;;;;5021982;28;20308;-73
2023/09/30 10:48:41;;;;;;;15.77;11.68;;;18.40;99.90;;;;;;5022504;28;20225;-73
2023/09/30 10:51:30;;;;;;;9.40;7.93;;;18.40;99.90;;;;;;4996977;28;20263;-73
2023/09/30 10:54:24;;;;;;;10.20;8.20;;;18.20;99.90;;;;;;5006610;28;20222;-73
2023/09/30 10:57:13;;;;;;;11.43;6.00;;;18.20;99.90;;;;;;5008140;28;20218;-73
2023/09/30 11:00:16;;;;;;;8.80;6.22;;;18.30;99.90;;;;;;5016667;28;20213;-74
2023/09/30 11:03:06;;;;;;;6.43;4.93;;;18.30;99.90;;;;;;5025916;28;20236;-73
2023/09/30 11:05:55;;;;;;;8.85;5.13;;;18.40;99.90;;;;;;5009398;28;20230;-74
2023/09/30 11:09:01;;;;;;;19.58;5.30;;;18.20;99.90;;;;;;5017342;28;20754;-73
2023/09/30 11:11:53;;;;;;;7.88;4.60;;;18.30;99.90;;;;;;5010287;28;20759;-73
2023/09/30 11:14:42;;;;;;;8.77;4.57;;;18.10;99.90;;;;;;5017886;28;20359;-73
2023/09/30 11:17:32;;;;;;;6.10;4.28;;;18.00;99.90;;;;;;5027951;28;21568;-74
2023/09/30 11:20:21;;;;;;;7.13;4.28;;;18.00;99.90;;;;;;5015076;28;20742;-73
2023/09/30 11:23:11;;;;;;;8.55;4.50;;;18.00;99.90;;;;;;5021181;28;20237;-74
2023/09/30 11:26:13;;;;;;;6.93;4.10;;;18.00;99.90;;;;;;5023302;28;20236;-72
2023/09/30 11:29:11;;;;;;;6.40;3.72;;;17.90;99.90;;;;;;5017554;28;20381;-74
2023/09/30 11:32:01;;;;;;;6.28;3.83;;;17.70;99.90;;;;;;5013666;28;20237;-74
2023/09/30 11:34:51;;;;;;;6.68;3.33;;;17.70;99.90;;;;;;5023982;28;20249;-74
2023/09/30 11:37:45;;;;;;;9.43;3.97;;;18.00;99.90;;;;;;5019789;28;21044;-72
2023/09/30 11:40:33;;;;;;;7.65;3.67;;;18.10;99.90;;;;;;5020544;28;20256;-73
2023/09/30 11:43:23;;;;;;;5.70;3.30;;;18.30;99.90;;;;;;5010863;28;20937;-73
2023/09/30 11:46:13;;;;;;;11.30;3.85;;;18.40;99.90;;;;;;5022503;28;20233;-73
2023/09/30 11:49:05;;;;;;;8.93;4.07;;;18.70;99.90;;;;;;5011871;28;20222;-74
2023/09/30 11:51:56;;;;;;;7.57;3.95;;;18.70;99.90;;;;;;5016003;28;20218;-74
2023/09/30 11:54:46;;;;;;;11.02;4.53;;;18.60;99.90;;;;;;5019833;28;20237;-73
2023/09/30 11:57:35;;;;;;;9.18;4.05;;;18.60;99.90;;;;;;5012817;28;20230;-73
2023/09/30 12:00:24;;;;;;;8.32;3.80;;;18.30;99.90;;;;;;5018721;28;20237;-74
2023/09/30 12:03:13;;;;;;;9.05;3.92;;;18.30;99.90;;;;;;5023464;28;20218;-72
2023/09/30 12:06:02;;;;;;;8.13;3.70;;;18.30;99.90;;;;;;5008732;28;20713;-73
2023/09/30 12:08:53;;;;;;;7.22;3.88;;;18.40;99.90;;;;;;5026089;28;20225;-73
2023/09/30 12:11:43;;;;;;;6.32;3.70;;;18.70;99.90;;;;;;5007499;28;20936;-73
2023/09/30 12:14:33;;;;;;;8.02;4.28;;;18.90;99.90;;;;;;5017540;28;20223;-73
2023/09/30 12:17:22;;;;;;;7.43;3.95;;;19.10;99.90;;;;;;5022191;28;20218;-73
2023/09/30 12:20:14;;;;;;;5.80;3.72;;;19.10;99.90;;;;;;5015513;28;20234;-72
2023/09/30 12:23:05;;;;;;;8.43;3.85;;;19.10;99.90;;;;;;5013197;28;20225;-73
2023/09/30 12:25:55;;;;;;;8.40;3.90;;;18.90;99.90;;;;;;5022565;28;20209;-73
2023/09/30 12:29:01;;;;;;;7.32;3.95;;;18.80;99.90;;;;;;5025938;28;20225;-73
2023/09/30 12:31:52;;;;;;;8.88;3.83;;;18.90;99.90;;;;;;5020908;28;20240;-72
2023/09/30 12:34:44;;;;;;;6.65;3.67;;;19.10;99.90;;;;;;5020074;28;20221;-73
2023/09/30 12:37:33;;;;;;;8.23;4.28;;;19.00;99.90;;;;;;5012166;28;20706;-72
2023/09/30 12:40:24;;;;;;;12.57;4.90;;;18.90;99.90;;;;;;5020037;28;20283;-72
2023/09/30 12:43:14;;;;;;;11.13;4.72;;;18.70;99.90;;;;;;5016018;28;20228;-71
2023/09/30 12:46:04;;;;;;;9.98;4.05;;;18.80;99.90;;;;;;5015395;28;20244;-71
2023/09/30 12:48:54;;;;;;;7.25;4.28;;;19.00;99.90;;;;;;5017688;28;20291;-70
2023/09/30 12:51:44;;;;;;;11.15;3.85;;;19.10;99.90;;;;;;5015550;28;20222;-71
2023/09/30 12:54:34;;;;;;;7.93;3.63;;;18.80;99.90;;;;;;5021001;28;20218;-71
2023/09/30 12:57:23;;;;;;;9.07;3.80;;;18.80;99.90;;;;;;5016646;28;20273;-71
2023/09/30 13:00:15;;;;;;;15.75;4.47;;;18.80;99.90;;;;;;5013463;28;20321;-68
2023/09/30 13:03:05;;;;;;;9.73;3.90;;;18.90;99.90;;;;;;5011472;28;20528;-71
2023/09/30 13:05:54;;;;;;;9.43;4.03;;;18.90;99.90;;;;;;5017599;28;20219;-72
2023/09/30 13:08:43;;;;;;;9.43;4.40;;;18.80;99.90;;;;;;5016072;28;20253;-71
